^^
Saratoga-Weather Station Historical Data
 
Daily Summary for July 05, 2022 Units:  Metric    English   Both
Daily Weekly Monthly Yearly
  Current: High: Low: Average:
Temperature: 33.7 °C 33.9 °C 20.5 °C 25.5 °C
Dew Point: 16.2 °C 19.3 °C 16.2 °C 18.4 °C
Humidity: 35.2% 86% 35.2% 67%
Wind Speed: 10.1km/h 14.2km/h 0km/h 8.3km/h
Wind Gust: 11.3km/h 19.3km/h - -
WindSSW - - WSW
Pressure: 1010.2 hPa 1013.1 hPa 1010.2 hPa -
Precipitation: 0.5 mm      
 
 
Tabular Data for July 05, 2022
Time Temperature Dew Point Pressure Wind Wind Speed Wind Gust Humidity Rainfall Rate (Hourly) solar
00:04 22.4 °C 18.2 °C 1012.7 hPa WSW 5 km/h 4.2 km/h 77% 0.0 mm 0 W/m2
00:09 22.6 °C 18.3 °C 1012.7 hPa WSW 5.4 km/h 6.4 km/h 76.7% 0.0 mm 0 W/m2
00:14 22.7 °C 18.2 °C 1012.5 hPa WSW 5.9 km/h 6.4 km/h 76% 0.0 mm 0 W/m2
00:19 22.7 °C 18.2 °C 1012.6 hPa WSW 5.8 km/h 6.4 km/h 75.8% 0.0 mm 0 W/m2
00:24 22.8 °C 18.1 °C 1012.7 hPa WSW 6 km/h 8 km/h 75% 0.0 mm 0 W/m2
00:29 22.8 °C 18.2 °C 1012.7 hPa WSW 5.3 km/h 6.4 km/h 75% 0.0 mm 0 W/m2
00:34 22.9 °C 18.1 °C 1012.7 hPa WSW 7.4 km/h 6.4 km/h 74.4% 0.0 mm 0 W/m2
00:39 22.9 °C 18.1 °C 1012.7 hPa WSW 5.9 km/h 9.7 km/h 74.3% 0.0 mm 0 W/m2
00:44 22.8 °C 18.2 °C 1012.7 hPa WNW 8.3 km/h 7.9 km/h 75% 0.0 mm 0 W/m2
00:49 22.7 °C 18 °C 1012.6 hPa WNW 8 km/h 11.3 km/h 74.8% 0.0 mm 0 W/m2
00:54 22.7 °C 17.8 °C 1012.5 hPa NW 7 km/h 11.3 km/h 74.2% 0.0 mm 0 W/m2
00:59 22.6 °C 17.9 °C 1012.5 hPa NW 7.8 km/h 8 km/h 74.5% 0.0 mm 0 W/m2
01:04 22.6 °C 17.9 °C 1012.6 hPa WNW 10.4 km/h 14.5 km/h 75% 0.0 mm 0 W/m2
01:09 22.6 °C 17.9 °C 1012.6 hPa WNW 6.7 km/h 12.9 km/h 75% 0.0 mm 0 W/m2
01:14 22.5 °C 18 °C 1012.5 hPa WNW 7 km/h 6.4 km/h 75.8% 0.0 mm 0 W/m2
01:19 22.4 °C 18 °C 1012.5 hPa WNW 4.9 km/h 8 km/h 76.2% 0.0 mm 0 W/m2
01:24 22.2 °C 18.1 °C 1012.5 hPa WNW 4.6 km/h 4.8 km/h 77.3% 0.0 mm 0 W/m2
01:29 22.1 °C 18.1 °C 1012.7 hPa WNW 5.8 km/h 6.4 km/h 78.2% 0.0 mm 0 W/m2
01:34 21.8 °C 18.1 °C 1012.7 hPa WNW 4.3 km/h 6.4 km/h 79.5% 0.0 mm 0 W/m2
01:39 21.8 °C 18.2 °C 1012.7 hPa WNW 5.3 km/h 6 km/h 79.8% 0.0 mm 0 W/m2
01:43 22.1 °C 18.2 °C 1012.7 hPa WNW 7.3 km/h 8 km/h 78.4% 0.0 mm 0 W/m2
01:49 22.4 °C 18.3 °C 1012.5 hPa WNW 4.6 km/h 9.7 km/h 77.3% 0.0 mm 0 W/m2
01:54 22.5 °C 18.2 °C 1012.6 hPa WNW 5.1 km/h 4.8 km/h 76.4% 0.0 mm 0 W/m2
01:59 22.3 °C 18.2 °C 1012.6 hPa WNW 5.2 km/h 4.8 km/h 77.3% 0.0 mm 0 W/m2
02:04 22.1 °C 18.2 °C 1012.6 hPa WNW 3.6 km/h 4.8 km/h 78.4% 0.0 mm 0 W/m2
02:09 21.8 °C 18.2 °C 1012.4 hPa WNW 2.2 km/h 3.2 km/h 80% 0.0 mm 0 W/m2
02:14 21.6 °C 18.3 °C 1012.5 hPa WNW 0.9 km/h 1.6 km/h 81% 0.0 mm 0 W/m2
02:19 21.5 °C 18.3 °C 1012.4 hPa WNW 1.8 km/h 2.3 km/h 81.8% 0.0 mm 0 W/m2
02:24 21.4 °C 18.2 °C 1012.3 hPa WNW 4.9 km/h 4.7 km/h 82.3% 0.0 mm 0 W/m2
02:29 21.4 °C 18.4 °C 1012.6 hPa WNW 5.8 km/h 6.4 km/h 82.8% 0.0 mm 0 W/m2
02:34 21.8 °C 18.4 °C 1012.7 hPa West 6.3 km/h 6.4 km/h 81% 0.0 mm 0 W/m2
02:39 22.2 °C 18.4 °C 1012.9 hPa West 6.8 km/h 8 km/h 79.2% 0.0 mm 0 W/m2
02:44 22.4 °C 18.3 °C 1012.8 hPa WNW 7.8 km/h 9.7 km/h 77.5% 0.0 mm 0 W/m2
02:49 22.6 °C 18.3 °C 1012.8 hPa WNW 8.4 km/h 9.7 km/h 76.7% 0.0 mm 0 W/m2
02:54 22.7 °C 18.2 °C 1012.7 hPa WNW 5.4 km/h 11.3 km/h 76% 0.0 mm 0 W/m2
02:59 22.6 °C 18.2 °C 1012.7 hPa West 6.5 km/h 6.4 km/h 76.2% 0.0 mm 0 W/m2
03:04 22.5 °C 18.3 °C 1012.8 hPa West 6.1 km/h 8 km/h 77% 0.0 mm 0 W/m2
03:09 22.4 °C 18.2 °C 1012.9 hPa West 5.6 km/h 8 km/h 77.4% 0.0 mm 0 W/m2
03:14 22.2 °C 18.3 °C 1012.9 hPa West 4.9 km/h 6.4 km/h 78.2% 0.0 mm 0 W/m2
03:19 22.2 °C 18.3 °C 1012.8 hPa West 5.6 km/h 6.4 km/h 78.8% 0.0 mm 0 W/m2
03:24 22.3 °C 18.3 °C 1012.7 hPa West 7.3 km/h 6.4 km/h 78% 0.0 mm 0 W/m2
03:29 22.3 °C 18.3 °C 1012.7 hPa West 6.2 km/h 9.7 km/h 78.3% 0.0 mm 0 W/m2
03:33 22.1 °C 18.3 °C 1013.0 hPa SW 9.1 km/h 8.9 km/h 79.4% 0.0 mm 0 W/m2
03:39 21.7 °C 18.4 °C 1013.1 hPa SW 10.6 km/h 12.9 km/h 81.3% 0.0 mm 0 W/m2
03:44 21.5 °C 18.4 °C 1013.0 hPa SW 7 km/h 11.3 km/h 82.6% 0.0 mm 0 W/m2
03:49 21.3 °C 18.4 °C 1013.0 hPa SW 5.1 km/h 9.7 km/h 83.3% 0.0 mm 0 W/m2
03:54 21.3 °C 18.4 °C 1012.6 hPa SSW 4.9 km/h 4.8 km/h 83.7% 0.0 mm 0 W/m2
03:58 21.3 °C 18.4 °C 1012.3 hPa ESE 7.7 km/h 8 km/h 84% 0.0 mm 0 W/m2
04:03 21.3 °C 18.3 °C 1012.1 hPa ENE 9.1 km/h 11.3 km/h 83% 0.0 mm 0 W/m2
04:09 21.4 °C 18.2 °C 1012.1 hPa ENE 4 km/h 11.3 km/h 82% 0.2 mm 0 W/m2
04:13 21.5 °C 18.4 °C 1011.7 hPa SSE 6.1 km/h 5 km/h 82.6% 0.2 mm 0 W/m2
04:19 21.3 °C 18.3 °C 1011.7 hPa SSE 4.7 km/h 8 km/h 83.2% 0.2 mm 0 W/m2
04:24 21.2 °C 18.3 °C 1011.5 hPa ESE 9.2 km/h 9.7 km/h 83.8% 0.2 mm 0 W/m2
04:29 21.1 °C 18.4 °C 1011.2 hPa South 7.7 km/h 5.6 km/h 84.6% 0.5 mm 0 W/m2
04:33 21.2 °C 18.4 °C 1011.4 hPa South 6.1 km/h 9.7 km/h 84.2% 0.5 mm 0 W/m2
04:38 21.2 °C 18.4 °C 1011.6 hPa South 5.7 km/h 6.6 km/h 84% 0.5 mm 0 W/m2
04:44 21.2 °C 18.4 °C 1012.3 hPa WSW 8.6 km/h 9.7 km/h 84.3% 0.5 mm 0 W/m2
04:49 21 °C 18.5 °C 1012.4 hPa WNW 7.6 km/h 12.9 km/h 85.3% 0.5 mm 0 W/m2
04:54 20.9 °C 18.4 °C 1012.6 hPa WNW 7 km/h 9.7 km/h 85.8% 0.5 mm 0 W/m2
04:59 20.8 °C 18.4 °C 1012.6 hPa NW 8 km/h 8 km/h 86% 0.5 mm 0 W/m2
05:04 20.8 °C 18.3 °C 1012.6 hPa WNW 11.3 km/h 12.9 km/h 86% 0.5 mm 0 W/m2
05:09 20.8 °C 18.2 °C 1012.5 hPa WNW 9.6 km/h 12.9 km/h 85.3% 0.2 mm 0 W/m2
05:14 20.8 °C 18.1 °C 1012.5 hPa NW 7.2 km/h 11.3 km/h 84.3% 0.2 mm 0 W/m2
05:19 20.8 °C 18 °C 1012.5 hPa WNW 0.3 km/h 8 km/h 84% 0.2 mm 0 W/m2
05:24 20.7 °C 18 °C 1012.4 hPa Calm     84.4% 0.2 mm 0 W/m2
05:29 20.6 °C 18 °C 1012.4 hPa Calm     85% 0.2 mm 0 W/m2
05:34 20.5 °C 17.9 °C 1012.4 hPa Calm     85% 0.0 mm 0 W/m2
05:39 20.6 °C 18 °C 1012.4 hPa Calm     85% 0.0 mm 0 W/m2
05:44 20.6 °C 18 °C 1012.4 hPa Calm     85% 0.0 mm 0 W/m2
05:49 20.7 °C 18.1 °C 1012.3 hPa Calm     85% 0.0 mm 5 W/m2
05:54 20.8 °C 18.1 °C 1012.3 hPa Calm     84.8% 0.0 mm 5 W/m2
05:59 20.8 °C 18.1 °C 1012.3 hPa Calm     84% 0.0 mm 9 W/m2
06:04 20.8 °C 18.1 °C 1012.3 hPa Calm     84% 0.0 mm 12 W/m2
06:09 20.8 °C 18.1 °C 1012.4 hPa Calm     84.2% 0.0 mm 19 W/m2
06:14 20.7 °C 18.1 °C 1012.4 hPa Calm     85% 0.0 mm 25 W/m2
06:19 20.8 °C 18.2 °C 1012.3 hPa Calm     85.1% 0.0 mm 25 W/m2
06:24 20.9 °C 18.2 °C 1012.3 hPa Calm     84.6% 0.0 mm 35 W/m2
06:28 20.9 °C 18.1 °C 1012.3 hPa Calm     84% 0.0 mm 39 W/m2
06:34 20.9 °C 18.1 °C 1012.4 hPa West 6.6 km/h 8 km/h 84% 0.0 mm 25 W/m2
06:39 20.8 °C 18 °C 1012.4 hPa West 4.7 km/h 8 km/h 84% 0.0 mm 32 W/m2
06:44 20.7 °C 18.1 °C 1012.4 hPa West 4.5 km/h 4.8 km/h 84.7% 0.0 mm 47 W/m2
06:49 20.7 °C 18.1 °C 1012.5 hPa West 4.1 km/h 6.4 km/h 85% 0.0 mm 76 W/m2
06:53 20.8 °C 18.2 °C 1012.5 hPa West 4.1 km/h 4.8 km/h 85% 0.0 mm 118 W/m2
06:59 20.9 °C 18.3 °C 1012.6 hPa WNW 6.4 km/h 8 km/h 85% 0.0 mm 142 W/m2
07:04 21 °C 18.4 °C 1012.6 hPa West 6 km/h 8 km/h 85% 0.0 mm 160 W/m2
07:09 21.1 °C 18.5 °C 1012.5 hPa WNW 7.3 km/h 8 km/h 84.8% 0.0 mm 204 W/m2
07:14 21.3 °C 18.5 °C 1012.5 hPa WSW 6.8 km/h 9.7 km/h 84.2% 0.0 mm 207 W/m2
07:19 21.4 °C 18.6 °C 1012.6 hPa WNW 8.2 km/h 9.7 km/h 83.8% 0.0 mm 171 W/m2
07:24 21.4 °C 18.4 °C 1012.7 hPa West 10.2 km/h 12.9 km/h 83% 0.0 mm 153 W/m2
07:29 21.4 °C 18.6 °C 1012.7 hPa West 8.7 km/h 9.7 km/h 83.8% 0.0 mm 153 W/m2
07:34 21.4 °C 18.6 °C 1012.7 hPa West 8.6 km/h 11.3 km/h 84% 0.0 mm 116 W/m2
07:39 21.5 °C 18.7 °C 1012.8 hPa West 9.2 km/h 11.3 km/h 84.2% 0.0 mm 301 W/m2
07:44 21.6 °C 18.9 °C 1012.8 hPa WSW 9.1 km/h 11.3 km/h 84.3% 0.0 mm 304 W/m2
07:49 21.8 °C 18.9 °C 1012.8 hPa WSW 9.6 km/h 12.9 km/h 84% 0.0 mm 193 W/m2
07:54 22 °C 19.1 °C 1012.8 hPa WSW 9.4 km/h 12.9 km/h 83.5% 0.0 mm 279 W/m2
07:59 22.1 °C 19 °C 1012.8 hPa West 9.3 km/h 11.3 km/h 82.5% 0.0 mm 178 W/m2
08:04 22.3 °C 19.1 °C 1012.8 hPa WSW 8 km/h 11.3 km/h 82.4% 0.0 mm 276 W/m2
08:09 22.2 °C 18.9 °C 1012.8 hPa West 11.1 km/h 11.3 km/h 81.4% 0.0 mm 274 W/m2
08:14 22.3 °C 18.9 °C 1012.8 hPa West 7.1 km/h 16.1 km/h 81.3% 0.0 mm 185 W/m2
08:18 22.4 °C 19.1 °C 1012.7 hPa West 7.4 km/h 8 km/h 81.6% 0.0 mm 297 W/m2
08:24 22.5 °C 19 °C 1012.9 hPa West 9.9 km/h 9.8 km/h 80.5% 0.0 mm 387 W/m2
08:29 22.6 °C 18.8 °C 1012.8 hPa WNW 12.5 km/h 11.9 km/h 79.2% 0.0 mm 197 W/m2
08:34 22.6 °C 18.8 °C 1012.9 hPa West 12.2 km/h 14.5 km/h 79% 0.0 mm 424 W/m2
08:39 22.8 °C 18.9 °C 1012.8 hPa WNW 7.8 km/h 14.5 km/h 78.8% 0.0 mm 353 W/m2
08:44 23 °C 19 °C 1012.8 hPa West 8.1 km/h 9.7 km/h 78% 0.0 mm 334 W/m2
08:49 23.2 °C 19 °C 1012.9 hPa NW 10.5 km/h 12.9 km/h 77.5% 0.0 mm 334 W/m2
08:54 23.3 °C 19 °C 1012.9 hPa NW 10.3 km/h 12.9 km/h 76.8% 0.0 mm 364 W/m2
08:59 23.6 °C 19.1 °C 1012.9 hPa NW 8.9 km/h 12.9 km/h 76% 0.0 mm 396 W/m2
09:04 23.9 °C 19.1 °C 1013.0 hPa WSW 9.7 km/h 11.3 km/h 74.7% 0.0 mm 432 W/m2
09:08 24 °C 18.9 °C 1012.9 hPa West 10.9 km/h 14.5 km/h 73.2% 0.0 mm 452 W/m2
09:14 24.2 °C 18.9 °C 1012.9 hPa WSW 9.4 km/h 14.5 km/h 72.7% 0.0 mm 483 W/m2
09:19 24.1 °C 18.7 °C 1012.9 hPa WSW 12 km/h 9.7 km/h 72% 0.0 mm 501 W/m2
09:24 24.1 °C 18.7 °C 1012.9 hPa West 9.6 km/h 12.9 km/h 71.8% 0.0 mm 517 W/m2
09:29 24.5 °C 18.7 °C 1012.9 hPa WNW 10 km/h 11.3 km/h 69.8% 0.0 mm 522 W/m2
09:34 24.8 °C 18.8 °C 1012.9 hPa West 7.6 km/h 12.9 km/h 69% 0.0 mm 538 W/m2
09:39 25 °C 18.7 °C 1012.8 hPa West 7.9 km/h 9.7 km/h 68.2% 0.0 mm 552 W/m2
09:44 25 °C 18.7 °C 1012.8 hPa West 8.7 km/h 11.3 km/h 68.2% 0.0 mm 564 W/m2
09:49 25.1 °C 18.8 °C 1012.8 hPa West 10.8 km/h 11.3 km/h 68.3% 0.0 mm 578 W/m2
09:54 25.2 °C 18.8 °C 1012.8 hPa West 10.1 km/h 11.3 km/h 67.7% 0.0 mm 596 W/m2
09:59 25.6 °C 18.8 °C 1012.8 hPa WNW 9.5 km/h 11.3 km/h 66.2% 0.0 mm 608 W/m2
10:04 25.9 °C 18.6 °C 1012.8 hPa WNW 10.7 km/h 11.3 km/h 64.2% 0.0 mm 617 W/m2
10:09 25.9 °C 18.8 °C 1012.8 hPa West 8.7 km/h 16.1 km/h 64.8% 0.0 mm 624 W/m2
10:14 26 °C 19 °C 1012.8 hPa West 10.7 km/h 11.3 km/h 65.2% 0.0 mm 636 W/m2
10:19 26.4 °C 18.9 °C 1012.8 hPa West 8.4 km/h 12.9 km/h 63.5% 0.0 mm 645 W/m2
10:24 26.3 °C 18.7 °C 1012.8 hPa West 9 km/h 11.3 km/h 62.8% 0.0 mm 656 W/m2
10:29 26.5 °C 18.7 °C 1012.6 hPa WSW 11.1 km/h 12.9 km/h 62.3% 0.0 mm 668 W/m2
10:34 26.6 °C 18.6 °C 1012.6 hPa WSW 11 km/h 14.5 km/h 61.6% 0.0 mm 677 W/m2
10:39 26.8 °C 18.5 °C 1012.6 hPa West 12 km/h 12.9 km/h 60.5% 0.0 mm 691 W/m2
10:44 26.9 °C 18.5 °C 1012.5 hPa West 11.8 km/h 16.1 km/h 60% 0.0 mm 701 W/m2
10:49 26.9 °C 18.4 °C 1012.6 hPa West 10.4 km/h 16.1 km/h 60% 0.0 mm 708 W/m2
10:54 27 °C 18.4 °C 1012.5 hPa WNW 9.7 km/h 12.9 km/h 59.4% 0.0 mm 715 W/m2
10:59 27.1 °C 18.5 °C 1012.5 hPa WNW 8.9 km/h 12.9 km/h 59.5% 0.0 mm 715 W/m2
11:04 27.5 °C 18.7 °C 1012.6 hPa West 12.8 km/h 14.5 km/h 58.9% 0.0 mm 712 W/m2
11:09 27.5 °C 18.7 °C 1012.5 hPa WSW 7.7 km/h 14.5 km/h 58.6% 0.0 mm 698 W/m2
11:14 27.6 °C 18.8 °C 1012.5 hPa WSW 12.2 km/h 14.5 km/h 58.7% 0.0 mm 679 W/m2
11:19 27.8 °C 18.8 °C 1012.5 hPa WSW 13.9 km/h 16.1 km/h 57.8% 0.0 mm 661 W/m2
11:23 27.8 °C 18.8 °C 1012.5 hPa West 9 km/h 19.3 km/h 57.8% 0.0 mm 636 W/m2
11:29 28.4 °C 19.1 °C 1012.4 hPa WSW 10.5 km/h 12.9 km/h 57.2% 0.0 mm 619 W/m2
11:34 28.3 °C 18.6 °C 1012.4 hPa WSW 13.5 km/h 12.9 km/h 55.7% 0.0 mm 619 W/m2
11:39 28.2 °C 18.6 °C 1012.4 hPa West 13.5 km/h 14.5 km/h 56.3% 0.0 mm 647 W/m2
11:43 28.3 °C 18.8 °C 1012.4 hPa WSW 9.7 km/h 14.5 km/h 56.3% 0.0 mm 664 W/m2
11:49 28.4 °C 19 °C 1012.4 hPa West 10.5 km/h 14.5 km/h 56.5% 0.0 mm 726 W/m2
11:54 28.5 °C 18.8 °C 1012.4 hPa West 12.5 km/h 14.5 km/h 55.8% 0.0 mm 777 W/m2
11:59 28.7 °C 19 °C 1012.4 hPa NW 11.7 km/h 14.5 km/h 55.8% 0.0 mm 814 W/m2
12:04 28.8 °C 18.9 °C 1012.4 hPa NW 13.5 km/h 14.5 km/h 55.2% 0.0 mm 831 W/m2
12:09 28.9 °C 19.2 °C 1012.3 hPa West 10.3 km/h 16.1 km/h 55.9% 0.0 mm 838 W/m2
12:14 29.4 °C 19.2 °C 1012.3 hPa WSW 11.6 km/h 14.5 km/h 54.5% 0.0 mm 846 W/m2
12:19 29.4 °C 19.1 °C 1012.3 hPa WSW 14.2 km/h 19.3 km/h 54% 0.0 mm 854 W/m2
12:24 29.2 °C 19.1 °C 1012.3 hPa WSW 13.2 km/h 19.3 km/h 54.5% 0.0 mm 858 W/m2
12:29 29.4 °C 19.2 °C 1012.2 hPa West 14.1 km/h 19.3 km/h 54.4% 0.0 mm 863 W/m2
12:34 29.7 °C 19.1 °C 1012.2 hPa WNW 11.3 km/h 19.3 km/h 53.2% 0.0 mm 865 W/m2
12:39 29.5 °C 19.1 °C 1012.2 hPa WNW 11.3 km/h 12.9 km/h 53.8% 0.0 mm 870 W/m2
12:44 29.5 °C 18.9 °C 1012.2 hPa West 12.4 km/h 14.5 km/h 53.2% 0.0 mm 875 W/m2
12:49 29.6 °C 19 °C 1012.2 hPa WSW 12.7 km/h 14.5 km/h 53% 0.0 mm 877 W/m2
12:54 29.8 °C 18.6 °C 1012.2 hPa SW 9.3 km/h 14.5 km/h 51% 0.0 mm 882 W/m2
12:59 30 °C 18.9 °C 1012.1 hPa SSW 12.2 km/h 11.3 km/h 51.5% 0.0 mm 884 W/m2
13:04 29.8 °C 18.9 °C 1012.0 hPa SSW 13.5 km/h 14.5 km/h 52.3% 0.0 mm 889 W/m2
13:09 29.9 °C 19.1 °C 1011.9 hPa SW 11.7 km/h 16.1 km/h 52.2% 0.0 mm 889 W/m2
13:14 30.4 °C 19.1 °C 1011.8 hPa SW 10.1 km/h 12.9 km/h 51% 0.0 mm 895 W/m2
13:19 30.7 °C 19 °C 1011.7 hPa West 11.9 km/h 14.5 km/h 49.7% 0.0 mm 898 W/m2
13:24 30.6 °C 18.7 °C 1011.6 hPa WNW 11.3 km/h 14.5 km/h 49% 0.0 mm 895 W/m2
13:29 30.5 °C 19 °C 1011.7 hPa SSW 8.5 km/h 16.1 km/h 50.3% 0.0 mm 893 W/m2
13:34 30.9 °C 19.3 °C 1011.7 hPa WSW 10.4 km/h 11.3 km/h 50.2% 0.0 mm 893 W/m2
13:39 31 °C 19 °C 1011.7 hPa WSW 10.3 km/h 12.9 km/h 48.8% 0.0 mm 896 W/m2
13:44 30.9 °C 19 °C 1011.6 hPa WSW 12 km/h 14.5 km/h 49.2% 0.0 mm 898 W/m2
13:49 31.1 °C 19 °C 1011.6 hPa WSW 11.9 km/h 16.1 km/h 48.8% 0.0 mm 898 W/m2
13:54 31 °C 19 °C 1011.6 hPa WNW 13.9 km/h 14.5 km/h 49% 0.0 mm 895 W/m2
13:59 31.1 °C 18.9 °C 1011.6 hPa WSW 9.8 km/h 16.1 km/h 48.4% 0.0 mm 893 W/m2
14:04 31.4 °C 18.8 °C 1011.6 hPa West 13.6 km/h 13.7 km/h 47.3% 0.0 mm 889 W/m2
14:09 31.3 °C 18.7 °C 1011.6 hPa West 13.6 km/h 19.3 km/h 47.2% 0.0 mm 891 W/m2
14:14 31.3 °C 18.6 °C 1011.5 hPa WSW 12 km/h 16.1 km/h 47% 0.0 mm 884 W/m2
14:19 31.2 °C 19 °C 1011.4 hPa SSW 9.3 km/h 12.9 km/h 48.3% 0.0 mm 884 W/m2
14:24 31.4 °C 18.2 °C 1011.5 hPa West 13 km/h 12.6 km/h 45.5% 0.0 mm 884 W/m2
14:28 31.8 °C 18.2 °C 1011.5 hPa WSW 8.9 km/h 16.1 km/h 44.6% 0.0 mm 877 W/m2
14:34 32.2 °C 18.4 °C 1011.4 hPa SW 9.1 km/h 11.3 km/h 43.9% 0.0 mm 872 W/m2
14:38 32.1 °C 19 °C 1011.4 hPa SSW 8.4 km/h 16.1 km/h 46% 0.0 mm 872 W/m2
14:44 32 °C 18.9 °C 1011.4 hPa WSW 11.6 km/h 11.3 km/h 45.7% 0.0 mm 868 W/m2
14:49 32.1 °C 18.3 °C 1011.3 hPa West 11.9 km/h 12.9 km/h 43.8% 0.0 mm 865 W/m2
14:54 32.4 °C 18.3 °C 1011.3 hPa SW 10 km/h 14.5 km/h 43.3% 0.0 mm 856 W/m2
14:59 32.5 °C 18.4 °C 1011.3 hPa SW 12.4 km/h 12.9 km/h 43.3% 0.0 mm 851 W/m2
15:04 32.7 °C 18.2 °C 1011.4 hPa SSW 12.7 km/h 14.5 km/h 42.2% 0.0 mm 846 W/m2
15:09 32.6 °C 18.2 °C 1011.3 hPa WSW 10.6 km/h 16.1 km/h 42.4% 0.0 mm 840 W/m2
15:14 32.8 °C 18.3 °C 1011.1 hPa SSW 11.6 km/h 14.5 km/h 42.3% 0.0 mm 833 W/m2
15:18 32.8 °C 18.2 °C 1011.1 hPa South 10.9 km/h 16.1 km/h 42% 0.0 mm 826 W/m2
15:24 32.6 °C 17.9 °C 1011.0 hPa SW 12.2 km/h 14.5 km/h 41.7% 0.0 mm 823 W/m2
15:29 33.1 °C 17.7 °C 1011.0 hPa SW 9.5 km/h 12.9 km/h 40% 0.0 mm 819 W/m2
15:34 33.3 °C 17.8 °C 1011.0 hPa SSW 10.1 km/h 11.3 km/h 39.9% 0.0 mm 809 W/m2
15:39 33.1 °C 17.5 °C 1010.9 hPa SSW 10.7 km/h 12.9 km/h 39.4% 0.0 mm 805 W/m2
15:44 32.8 °C 16.9 °C 1010.9 hPa SSW 10.7 km/h 14.5 km/h 38.8% 0.0 mm 798 W/m2
15:49 33 °C 17 °C 1010.9 hPa SSW 12.2 km/h 14.5 km/h 38.5% 0.0 mm 791 W/m2
15:54 33 °C 17 °C 1010.8 hPa SSW 10.9 km/h 16.1 km/h 38.4% 0.0 mm 780 W/m2
15:59 33.2 °C 17.1 °C 1010.7 hPa South 11.3 km/h 19.3 km/h 38.4% 0.0 mm 775 W/m2
16:04 33.6 °C 16.9 °C 1010.7 hPa SSW 10.2 km/h 12.9 km/h 37% 0.0 mm 770 W/m2
16:08 33.9 °C 17.1 °C 1010.6 hPa SSW 9.9 km/h 11.3 km/h 36.8% 0.0 mm 759 W/m2
16:14 33.8 °C 16.8 °C 1010.6 hPa SW 10.8 km/h 12.9 km/h 36.3% 0.0 mm 751 W/m2
16:19 33.6 °C 16.6 °C 1010.5 hPa South 7.8 km/h 12.9 km/h 36.3% 0.0 mm 744 W/m2
16:24 33.6 °C 17 °C 1010.5 hPa SW 11.3 km/h 10.8 km/h 37.3% 0.0 mm 737 W/m2
16:29 33.4 °C 17.1 °C 1010.4 hPa SSW 8.7 km/h 14.5 km/h 38% 0.0 mm 722 W/m2
16:34 33.4 °C 16.9 °C 1010.4 hPa SSW 11.9 km/h 12.9 km/h 37.5% 0.0 mm 710 W/m2
16:39 33.5 °C 16.6 °C 1010.4 hPa SSW 9.8 km/h 14.5 km/h 36.5% 0.0 mm 696 W/m2
16:44 33.6 °C 16.5 °C 1010.3 hPa SSW 7.9 km/h 11.3 km/h 36% 0.0 mm 691 W/m2
16:49 33.7 °C 16.3 °C 1010.3 hPa SSW 9.4 km/h 9.7 km/h 35.3% 0.0 mm 680 W/m2
16:54 33.7 °C 16.5 °C 1010.3 hPa SSW 8 km/h 12.9 km/h 36% 0.0 mm 663 W/m2
16:58 33.7 °C 16.2 °C 1010.2 hPa SSW 10.1 km/h 11.3 km/h 35.2% 0.0 mm 650 W/m2
Lodi Weather
Compliments of Weather Underground - 2.25 mb